Terminal Aerodrome Forecast
Issued by NWS Mt. Holly, NJ

Home | Current Version | Previous Version | Text Only | Print | Product List | Glossary On
Versions: 1 2 3 4 5 6 7 8 9 10 11 12 13 14 15 16 17 18 19 20 21 22
000
FTUS41 KPHI 290500 RRA
TAFILG
TAF
KILG 290546Z 2906/3006 VRB03KT P6SM SKC
     FM291700 15008KT P6SM BKN100
     FM300100 17008KT 5SM -SNPL OVC040
     FM300200 17007KT 3SM -SNRA SCT015 OVC030
     FM300500 19006KT P6SM FEW020 OVC030=

USA.gov is the U.S. government's official web portal to all federal, state and local government web resources and services.